Main page
METAR-TAF:

METAR-TAF

Airports :

Hastings Municipal Airport

Hastings, Nebraska, United States

latitude: 40-36-02N, longitude: 098-25-33W, elevation: 1952 ft

Current weather observation

The report was made 12 minutes ago, at 12:53 UTC
Wind 10 mph from the South/Southwest
Temperature 27°F
Humidity 86%
Pressure 30.06 in. Hg
Visibility: 9 miles
Clear sky

METAR: KHSI 221253Z AUTO 21009KT 9SM CLR M03/M05 A3006 RMK AO2 SLP197 T10331050 $

Time: 07:05 (13:05 UTC)


TAF: missing

Weather observations and forecasts of more than 4000 airports (METAR and TAF reports).

The available stations are represented by yellow and red dots on the map.

Hover mouse over dot to see the name of the station.

Then click to see weather observations and forecasts.

To change the map : click on the green buttons with a black cross to zoom in, on the green button with a dash to zoom out, or on the green arrows for adjacent maps.


METAR-TAF: